Time;durP1;ratioP1;P1;durP2;ratioP2;P2;SDS_P1;SDS_P2;PMS_P1;PMS_P2;Temp;Humidity;BMP_temperature;BMP_pressure;BME280_temperature;BME280_humidity;BME280_pressure;Samples;Min_cycle;Max_cycle;Signal;HPM_P1;HPM_P2
2021/07/27 00:02:09;;;;;;;10.90;7.40;;;;;;;21.10;70.48;100627.34;5072402;28;20392;-83
2021/07/27 00:04:34;;;;;;;13.85;9.38;;;;;;;21.12;70.44;100628.00;5070741;28;20036;-84
2021/07/27 00:07:00;;;;;;;10.73;7.85;;;;;;;21.10;70.24;100630.94;5071616;28;20020;-84
2021/07/27 00:09:25;;;;;;;14.00;9.00;;;;;;;21.08;70.34;100633.00;5073018;28;20380;-84
2021/07/27 00:11:50;;;;;;;10.75;7.95;;;;;;;21.11;70.78;100631.75;5070909;28;20020;-83
2021/07/27 00:14:16;;;;;;;15.95;10.15;;;;;;;21.11;70.70;100629.88;5071327;28;20040;-84
2021/07/27 00:16:41;;;;;;;18.58;11.38;;;;;;;21.11;70.05;100634.50;5071111;28;20051;-83
2021/07/27 00:19:06;;;;;;;11.77;8.32;;;;;;;21.14;70.31;100630.50;5072051;28;20404;-83
2021/07/27 00:21:32;;;;;;;19.60;12.20;;;;;;;21.15;70.07;100632.19;5071902;28;20025;-84
2021/07/27 00:23:57;;;;;;;10.07;8.52;;;;;;;21.11;70.24;100635.34;5074357;28;20021;-84
2021/07/27 00:26:24;;;;;;;18.15;10.35;;;;;;;21.14;69.71;100620.41;5076072;28;20024;-84
2021/07/27 00:28:50;;;;;;;20.55;12.43;;;;;;;21.06;69.39;100624.19;5075356;28;20028;-84
2021/07/27 00:31:17;;;;;;;14.27;10.88;;;;;;;21.10;69.53;100641.03;5074696;28;20058;-84
2021/07/27 00:33:43;;;;;;;15.15;7.68;;;;;;;21.01;69.21;100636.78;5073600;28;20039;-84
2021/07/27 00:36:09;;;;;;;13.98;8.05;;;;;;;20.89;69.65;100640.13;5073013;28;20816;-84
2021/07/27 00:38:35;;;;;;;12.82;8.50;;;;;;;20.79;70.15;100639.69;5072325;28;20024;-84
2021/07/27 00:41:00;;;;;;;20.17;11.68;;;;;;;20.71;70.42;100639.03;5071147;28;20025;-84
2021/07/27 00:43:26;;;;;;;24.70;11.60;;;;;;;20.71;70.64;100637.13;5072719;28;20494;-84
2021/07/27 00:45:51;;;;;;;17.90;11.50;;;;;;;20.79;70.95;100636.13;5069744;28;20040;-84
2021/07/27 00:48:17;;;;;;;12.82;7.68;;;;;;;20.81;69.97;100628.53;5072995;28;20392;-84
2021/07/27 00:50:42;;;;;;;12.27;8.90;;;;;;;20.75;70.32;100626.63;5072670;28;20024;-84
2021/07/27 00:53:08;;;;;;;18.95;12.00;;;;;;;20.80;70.59;100618.66;5072456;28;20028;-83
2021/07/27 00:55:34;;;;;;;9.05;7.40;;;;;;;20.83;70.04;100615.50;5072338;28;20111;-84
2021/07/27 00:58:00;;;;;;;15.73;9.48;;;;;;;20.82;69.87;100605.63;5072240;28;20483;-84
2021/07/27 01:00:26;;;;;;;9.80;8.15;;;;;;;20.76;70.11;100617.41;5071983;28;20056;-84
2021/07/27 01:02:52;;;;;;;9.25;7.60;;;;;;;20.57;70.89;100610.78;5071261;28;20475;-84
2021/07/27 01:05:18;;;;;;;26.23;11.27;;;;;;;20.49;71.21;100613.69;5071597;28;20059;-84
2021/07/27 01:07:44;;;;;;;12.00;7.60;;;;;;;20.44;71.43;100631.50;5071950;28;20453;-84
2021/07/27 01:10:12;;;;;;;8.50;7.20;;;;;;;20.39;71.67;100616.81;5070374;28;20067;-84
2021/07/27 01:12:38;;;;;;;14.80;9.23;;;;;;;20.42;71.85;100649.19;5070097;28;20097;-84
2021/07/27 01:15:05;;;;;;;18.65;11.30;;;;;;;20.41;71.54;100680.25;5071065;28;20468;-84
2021/07/27 01:17:30;;;;;;;18.48;11.52;;;;;;;20.46;70.97;100716.00;5069715;28;20035;-84
2021/07/27 01:20:04;;;;;;;13.68;11.20;;;;;;;20.50;70.92;100709.09;5072198;28;20436;-84
2021/07/27 01:43:48;;;;;;;27.70;15.10;;;;;;;20.52;70.21;100670.69;5073285;28;20028;-84
2021/07/27 01:46:15;;;;;;;14.48;9.63;;;;;;;20.49;70.78;100666.44;5073042;28;20036;-84
2021/07/27 01:48:41;;;;;;;10.45;7.18;;;;;;;20.41;70.45;100664.69;5070195;28;20030;-84
2021/07/27 01:51:06;;;;;;;9.23;7.65;;;;;;;20.37;70.63;100673.50;5070200;28;20115;-84
2021/07/27 01:53:47;;;;;;;18.27;10.18;;;;;;;20.37;70.71;100676.25;5069528;28;20032;-84
2021/07/27 01:56:13;;;;;;;;;;;;;;;20.35;70.64;100684.63;5069574;28;20030;-84
2021/07/27 01:58:38;;;;;;;12.32;8.30;;;;;;;20.26;70.71;100680.38;5070506;28;20638;-84
2021/07/27 02:01:04;;;;;;;17.05;9.63;;;;;;;20.20;71.48;100683.91;5070009;28;20350;-84
2021/07/27 02:03:29;;;;;;;14.30;9.05;;;;;;;20.14;71.22;100680.09;5070419;28;20059;-84
2021/07/27 02:05:54;;;;;;;19.42;10.55;;;;;;;20.13;71.53;100678.41;5069835;28;20060;-84
2021/07/27 02:08:21;;;;;;;15.68;10.23;;;;;;;20.20;70.93;100675.72;5069703;28;20101;-84
2021/07/27 02:10:50;;;;;;;20.83;11.65;;;;;;;20.26;70.44;100685.81;5070850;28;20024;-84
2021/07/27 02:13:29;;;;;;;15.48;10.75;;;;;;;20.34;70.36;100688.41;5070453;28;20025;-84
2021/07/27 02:15:55;;;;;;;12.85;8.52;;;;;;;20.31;69.38;100685.25;5070043;28;20087;-84
2021/07/27 02:18:21;;;;;;;12.48;10.80;;;;;;;20.24;69.95;100682.47;5072049;28;20028;-83
2021/07/27 02:20:46;;;;;;;18.08;12.35;;;;;;;20.23;70.24;100680.75;5071976;28;20024;-84
2021/07/27 02:23:12;;;;;;;11.82;8.20;;;;;;;20.26;70.05;100677.63;5070277;28;20067;-84
2021/07/27 02:25:37;;;;;;;9.45;8.27;;;;;;;20.18;70.03;100669.63;5073823;28;20037;-84
2021/07/27 02:28:03;;;;;;;10.02;8.65;;;;;;;20.14;70.03;100671.91;5071991;28;20024;-84
2021/07/27 02:30:33;;;;;;;17.67;11.90;;;;;;;20.12;69.68;100659.50;5072298;28;20496;-84
2021/07/27 02:32:58;;;;;;;19.85;12.98;;;;;;;20.18;69.89;100665.00;5071952;28;20020;-84
2021/07/27 02:35:28;;;;;;;16.35;12.20;;;;;;;20.16;69.54;100672.53;5071020;28;20127;-84
2021/07/27 02:37:53;;;;;;;10.25;7.90;;;;;;;20.10;69.59;100677.97;5068836;28;20471;-83
2021/07/27 02:40:18;;;;;;;17.45;13.02;;;;;;;19.94;70.60;100690.88;5070725;28;20028;-84
2021/07/27 02:42:44;;;;;;;18.63;10.52;;;;;;;19.91;71.29;100671.31;5070052;28;20035;-84
2021/07/27 02:45:12;;;;;;;15.07;10.02;;;;;;;19.92;72.46;100667.53;5068846;28;20028;-83
2021/07/27 02:47:42;;;;;;;16.92;12.15;;;;;;;19.94;72.51;100690.03;5070852;28;20438;-84
2021/07/27 02:50:10;;;;;;;17.52;14.85;;;;;;;20.09;72.63;100695.41;5068858;28;20040;-84
2021/07/27 02:52:38;;;;;;;15.52;12.45;;;;;;;20.22;72.51;100691.91;5069245;28;20032;-84
2021/07/27 02:55:04;;;;;;;16.88;15.07;;;;;;;20.23;72.61;100682.66;5071384;28;20071;-84
2021/07/27 02:57:29;;;;;;;16.73;11.90;;;;;;;20.37;71.87;100684.44;5069097;28;20126;-84
2021/07/27 02:59:56;;;;;;;19.17;15.77;;;;;;;20.39;71.94;100690.56;5071130;28;20376;-84
2021/07/27 03:02:35;;;;;;;19.95;15.30;;;;;;;20.53;71.28;100686.84;5070360;28;20033;-84
2021/07/27 03:05:00;;;;;;;27.35;18.95;;;;;;;20.55;71.42;100671.13;5070845;28;20055;-84
2021/07/27 03:07:34;;;;;;;22.80;16.63;;;;;;;20.60;71.17;100679.56;5070570;28;20441;-84
2021/07/27 03:10:18;;;;;;;25.65;17.23;;;;;;;20.64;71.22;100669.91;5071504;28;20037;-84
2021/07/27 03:12:48;;;;;;;20.23;15.95;;;;;;;20.69;71.20;100682.94;5073492;28;20025;-84
2021/07/27 03:15:14;;;;;;;16.08;11.23;;;;;;;20.70;71.14;100681.91;5071959;28;20024;-84
2021/07/27 03:17:40;;;;;;;22.10;11.73;;;;;;;20.65;70.99;100679.78;5072918;28;20032;-84
2021/07/27 03:20:07;;;;;;;16.30;12.43;;;;;;;20.58;71.06;100672.59;5071648;28;20024;-84
2021/07/27 03:22:32;;;;;;;21.42;11.68;;;;;;;20.57;71.25;100679.09;5072853;28;20404;-84
2021/07/27 03:24:58;;;;;;;19.75;11.52;;;;;;;20.54;71.47;100674.91;5073098;28;20024;-83
2021/07/27 03:27:23;;;;;;;23.10;16.52;;;;;;;20.46;71.86;100661.38;5073019;28;20039;-84
2021/07/27 03:29:49;;;;;;;19.70;14.82;;;;;;;20.57;71.60;100662.69;5071779;28;20115;-84
2021/07/27 03:32:14;;;;;;;18.67;14.93;;;;;;;20.56;71.77;100659.13;5072468;28;20082;-84
2021/07/27 03:34:41;;;;;;;23.88;15.98;;;;;;;20.54;71.78;100653.03;5075494;28;20059;-84
2021/07/27 03:37:14;;;;;;;13.73;11.20;;;;;;;20.56;71.94;100650.09;5075753;28;20091;-84
2021/07/27 03:39:39;;;;;;;14.35;11.80;;;;;;;20.60;71.54;100641.31;5073954;28;20477;-83
2021/07/27 03:42:05;;;;;;;14.73;9.95;;;;;;;20.70;71.16;100646.38;5077654;28;20056;-84
2021/07/27 03:44:30;;;;;;;18.48;10.95;;;;;;;20.70;71.05;100645.53;5076187;28;20024;-84
2021/07/27 03:47:06;;;;;;;13.35;9.15;;;;;;;20.72;71.33;100644.25;5074338;28;20036;-84
2021/07/27 03:49:31;;;;;;;17.60;12.50;;;;;;;20.78;71.00;100637.97;5072918;28;20431;-84
2021/07/27 03:52:01;;;;;;;16.77;12.07;;;;;;;20.75;71.33;100643.03;5074390;28;20021;-84
2021/07/27 03:54:28;;;;;;;16.58;11.27;;;;;;;20.74;71.07;100641.34;5071835;28;20051;-83
2021/07/27 03:56:53;;;;;;;18.38;13.10;;;;;;;20.77;70.90;100643.66;5074284;28;20498;-84
2021/07/27 03:59:18;;;;;;;19.63;11.70;;;;;;;20.78;70.94;100650.81;5074223;28;20131;-84
2021/07/27 04:01:43;;;;;;;23.13;12.73;;;;;;;20.83;70.57;100649.16;5072889;28;20029;-84
2021/07/27 04:04:09;;;;;;;16.65;10.70;;;;;;;20.81;70.39;100642.19;5073718;28;20028;-83
2021/07/27 04:06:34;;;;;;;12.88;8.95;;;;;;;20.80;70.62;100630.44;5073905;28;20361;-83
2021/07/27 04:09:00;;;;;;;19.50;11.32;;;;;;;20.84;70.52;100633.59;5074339;28;20036;-84
2021/07/27 04:11:25;;;;;;;12.40;8.77;;;;;;;20.83;70.09;100623.72;5071706;28;20115;-83
2021/07/27 04:13:52;;;;;;;19.90;10.45;;;;;;;20.84;70.38;100626.22;5066545;28;20026;-84
2021/07/27 04:16:18;;;;;;;15.00;11.10;;;;;;;20.80;70.58;100635.06;5062014;28;20052;-84
2021/07/27 04:18:45;;;;;;;12.60;9.30;;;;;;;20.84;70.02;100633.59;5069253;28;20103;-84
2021/07/27 04:21:11;;;;;;;11.27;7.65;;;;;;;20.86;69.88;100629.59;5070163;28;20478;-84
2021/07/27 04:23:36;;;;;;;7.88;6.82;;;;;;;20.91;70.56;100636.34;5081663;28;20131;-84
2021/07/27 04:26:02;;;;;;;17.20;11.50;;;;;;;20.98;70.39;100632.59;5076043;28;20021;-84
2021/07/27 04:28:27;;;;;;;25.92;13.73;;;;;;;21.08;70.82;100632.19;5070587;28;20059;-83
2021/07/27 04:30:52;;;;;;;20.10;14.27;;;;;;;21.12;70.42;100628.00;5085169;28;20024;-84
2021/07/27 04:33:18;;;;;;;20.65;12.18;;;;;;;21.09;70.77;100633.88;5067897;28;20036;-84
2021/07/27 04:35:43;;;;;;;25.85;11.95;;;;;;;21.19;70.62;100637.03;5080128;28;20074;-84
2021/07/27 04:38:09;;;;;;;15.00;8.73;;;;;;;21.04;70.23;100637.22;5073607;28;20028;-84
2021/07/27 04:40:34;;;;;;;23.52;8.30;;;;;;;20.92;70.41;100636.13;5084422;28;20093;-84
2021/07/27 04:43:00;;;;;;;22.52;10.43;;;;;;;20.88;71.42;100624.78;5072070;28;20051;-84
2021/07/27 04:45:28;;;;;;;17.23;8.38;;;;;;;20.91;71.26;100642.66;5089707;28;20031;-84
2021/07/27 04:47:54;;;;;;;18.90;9.35;;;;;;;20.95;71.07;100629.44;5074424;28;20127;-84
2021/07/27 04:50:19;;;;;;;16.15;10.18;;;;;;;20.97;71.12;100639.09;5084475;28;20038;-84
2021/07/27 04:52:51;;;;;;;14.18;8.23;;;;;;;21.13;70.45;100634.31;5072207;28;20019;-84
2021/07/27 04:55:16;;;;;;;19.90;9.18;;;;;;;21.13;70.23;100626.09;5080714;28;20104;-84
2021/07/27 04:57:42;;;;;;;21.55;9.40;;;;;;;21.21;70.27;100626.75;5079063;28;20111;-84
2021/07/27 05:00:10;;;;;;;16.50;7.55;;;;;;;21.28;69.69;100627.59;5072513;28;20028;-84
2021/07/27 05:02:38;;;;;;;19.95;8.85;;;;;;;21.25;69.94;100625.28;5084252;28;20118;-84
2021/07/27 05:05:04;;;;;;;16.02;7.68;;;;;;;21.38;69.78;100624.47;5073606;28;20027;-84
2021/07/27 05:07:29;;;;;;;14.98;8.90;;;;;;;21.41;69.28;100625.94;5076231;28;20032;-83
2021/07/27 05:09:55;;;;;;;13.65;7.32;;;;;;;21.47;69.43;100625.94;5067422;28;20046;-84
2021/07/27 05:12:20;;;;;;;16.27;9.23;;;;;;;21.44;69.75;100620.88;5083956;28;20020;-84
2021/07/27 05:14:45;;;;;;;8.68;6.63;;;;;;;21.43;69.35;100626.59;5068090;28;20423;-84
2021/07/27 05:17:11;;;;;;;13.93;7.45;;;;;;;21.49;69.34;100636.69;5074059;28;20059;-84
2021/07/27 05:19:48;;;;;;;17.63;9.90;;;;;;;21.48;70.12;100641.28;5075940;28;20111;-84
2021/07/27 05:22:14;;;;;;;17.45;7.68;;;;;;;21.50;70.03;100638.38;5066893;28;20032;-84
2021/07/27 05:24:39;;;;;;;12.80;7.35;;;;;;;21.45;69.11;100632.66;5085536;28;20024;-84
2021/07/27 05:27:04;;;;;;;13.00;7.43;;;;;;;21.51;69.22;100637.31;5074266;28;20024;-84
2021/07/27 05:29:29;;;;;;;11.45;7.55;;;;;;;21.42;68.92;100630.34;5077678;28;20038;-84
2021/07/27 05:31:56;;;;;;;13.45;8.60;;;;;;;21.38;69.85;100627.19;5080884;28;20028;-84
2021/07/27 05:34:21;;;;;;;12.55;7.85;;;;;;;21.39;69.05;100626.13;5070420;28;20373;-84
2021/07/27 05:36:47;;;;;;;15.95;8.30;;;;;;;21.46;69.68;100632.47;5083353;28;20093;-84
2021/07/27 05:39:12;;;;;;;13.20;9.57;;;;;;;21.44;70.36;100631.84;5074318;28;20024;-84
2021/07/27 05:41:37;;;;;;;15.35;8.45;;;;;;;21.47;69.97;100633.31;5074914;28;20075;-84
2021/07/27 05:44:03;;;;;;;19.30;8.55;;;;;;;21.54;70.12;100634.16;5081881;28;20031;-83
2021/07/27 05:46:28;;;;;;;16.90;9.65;;;;;;;21.50;69.93;100576.28;5070980;28;20035;-84
2021/07/27 05:48:54;;;;;;;12.15;10.88;;;;;;;21.49;69.93;100610.16;5084114;28;20047;-84
2021/07/27 05:51:21;;;;;;;21.20;12.68;;;;;;;21.48;70.31;100632.25;5076501;28;20115;-84
2021/07/27 05:53:46;;;;;;;15.02;11.23;;;;;;;21.47;70.79;100636.06;5076423;28;20722;-84
2021/07/27 05:56:11;;;;;;;17.75;13.10;;;;;;;21.50;70.83;100630.16;5082810;28;20036;-84
2021/07/27 05:58:37;;;;;;;15.55;12.77;;;;;;;21.47;70.53;100623.22;5069497;28;20039;-84
2021/07/27 06:01:06;;;;;;;16.65;14.05;;;;;;;21.50;70.55;100624.69;5081350;28;20362;-84
2021/07/27 06:03:31;;;;;;;17.52;10.73;;;;;;;21.57;70.68;100637.31;5075242;28;20032;-85
2021/07/27 06:05:57;;;;;;;14.13;11.10;;;;;;;21.55;71.37;100638.59;5073079;28;20460;-84
2021/07/27 06:08:22;;;;;;;16.45;13.50;;;;;;;21.75;70.53;100628.44;5077602;28;20027;-84
2021/07/27 06:10:47;;;;;;;24.77;16.50;;;;;;;21.79;70.88;100643.41;5081171;28;20388;-84
2021/07/27 06:13:12;;;;;;;14.25;12.75;;;;;;;21.89;70.08;100631.19;5072145;28;20488;-84
2021/07/27 06:15:40;;;;;;;13.95;11.60;;;;;;;21.98;70.00;100641.72;5069665;28;20056;-84
2021/07/27 06:18:05;;;;;;;18.65;12.45;;;;;;;22.05;70.05;100644.44;5081954;28;20028;-84
2021/07/27 06:20:31;;;;;;;20.88;13.38;;;;;;;22.03;69.80;100657.47;5069975;28;20489;-84
2021/07/27 06:22:56;;;;;;;17.00;13.00;;;;;;;22.05;70.77;100660.03;5080233;28;20035;-84
2021/07/27 06:25:21;;;;;;;24.38;16.63;;;;;;;22.03;70.44;100654.75;5075837;28;20027;-84
2021/07/27 06:27:46;;;;;;;18.83;13.25;;;;;;;22.25;69.49;100655.34;5073581;28;20418;-84
2021/07/27 06:30:13;;;;;;;19.92;15.07;;;;;;;22.38;70.77;100665.47;5083581;28;20104;-84
2021/07/27 06:32:38;;;;;;;17.52;12.98;;;;;;;22.46;70.52;100663.31;5070736;28;20507;-84
2021/07/27 06:35:04;;;;;;;19.42;15.60;;;;;;;22.68;70.33;100671.22;5082454;28;20029;-84
2021/07/27 06:37:29;;;;;;;18.40;12.13;;;;;;;23.11;68.25;100671.50;5074141;28;20031;-84
2021/07/27 06:39:54;;;;;;;21.80;13.98;;;;;;;23.33;67.27;100622.59;5071519;28;20116;-84
2021/07/27 06:42:20;;;;;;;17.05;13.13;;;;;;;23.82;65.61;100603.63;5080919;28;20126;-84
2021/07/27 06:44:45;;;;;;;14.23;12.80;;;;;;;24.06;65.24;100607.38;5085693;28;20028;-84
2021/07/27 06:47:10;;;;;;;24.30;13.98;;;;;;;24.27;63.88;100604.19;5076447;28;20483;-84
2021/07/27 06:49:36;;;;;;;18.88;12.60;;;;;;;24.44;63.22;100603.59;5079499;28;20028;-84
2021/07/27 06:52:01;;;;;;;20.60;13.45;;;;;;;24.51;63.06;100596.91;5084243;28;20031;-83
2021/07/27 06:54:26;;;;;;;15.85;11.20;;;;;;;24.60;63.09;100602.13;5074189;28;20032;-84
2021/07/27 06:56:55;;;;;;;16.10;11.98;;;;;;;24.34;63.06;100606.03;5086279;28;20101;-83
2021/07/27 06:59:23;;;;;;;15.20;10.57;;;;;;;24.39;63.80;100608.91;5076411;28;20719;-84
2021/07/27 07:01:49;;;;;;;14.75;10.50;;;;;;;24.29;64.39;100607.53;5076300;28;20024;-84
2021/07/27 07:04:14;;;;;;;18.42;12.73;;;;;;;23.98;65.11;100614.00;5086495;28;20057;-84
2021/07/27 07:06:41;;;;;;;13.30;11.73;;;;;;;23.65;65.84;100595.06;5073630;28;20028;-84
2021/07/27 07:09:06;;;;;;;14.82;11.23;;;;;;;23.57;67.25;100598.13;5085766;28;20033;-84
2021/07/27 07:11:31;;;;;;;13.75;12.35;;;;;;;23.50;68.19;100600.06;5080255;28;20035;-84
2021/07/27 07:13:57;;;;;;;19.02;12.20;;;;;;;23.35;67.92;100603.16;5084989;28;20477;-84
2021/07/27 07:16:22;;;;;;;15.82;12.30;;;;;;;23.09;67.84;100606.94;5072265;28;20064;-84
2021/07/27 07:18:47;;;;;;;13.52;10.77;;;;;;;23.01;68.65;100605.28;5085158;28;20396;-84
2021/07/27 07:21:13;;;;;;;11.95;10.10;;;;;;;23.11;67.55;100602.06;5075284;28;20032;-84
2021/07/27 07:23:38;;;;;;;13.82;9.93;;;;;;;23.23;67.32;100607.66;5078700;28;20035;-84
2021/07/27 07:26:08;;;;;;;11.90;10.52;;;;;;;23.43;67.92;100604.78;5083608;28;20103;-84
2021/07/27 07:28:34;;;;;;;10.40;8.32;;;;;;;23.63;65.38;100610.97;5070927;28;20032;-84
2021/07/27 07:31:00;;;;;;;7.93;7.13;;;;;;;23.74;64.92;100615.72;5084169;28;20024;-85
2021/07/27 07:33:25;;;;;;;7.60;6.88;;;;;;;23.79;64.18;100618.63;5077779;28;20051;-84
2021/07/27 07:35:51;;;;;;;9.27;7.10;;;;;;;23.91;63.69;100620.66;5073887;28;20500;-84
2021/07/27 07:38:16;;;;;;;7.10;5.85;;;;;;;23.95;61.28;100616.38;5085539;28;20023;-85
2021/07/27 07:40:41;;;;;;;7.43;6.83;;;;;;;23.99;62.28;100617.59;5072880;28;20024;-84
2021/07/27 07:43:08;;;;;;;8.27;7.07;;;;;;;24.12;61.77;100619.34;5081518;28;20225;-84
2021/07/27 07:45:33;;;;;;;8.07;7.35;;;;;;;24.17;63.61;100619.53;5078646;28;20080;-84
2021/07/27 07:47:58;;;;;;;9.70;7.30;;;;;;;24.42;61.92;100617.56;5074942;28;20024;-84
2021/07/27 07:50:23;;;;;;;9.57;8.68;;;;;;;24.46;61.52;100617.94;5086023;28;20032;-84
2021/07/27 07:53:09;;;;;;;10.63;8.25;;;;;;;24.60;61.55;100619.44;5072850;28;20035;-84
2021/07/27 07:55:34;;;;;;;9.57;8.48;;;;;;;24.52;60.78;100609.63;5075529;28;20450;-84
2021/07/27 07:58:01;;;;;;;11.10;10.00;;;;;;;24.54;62.58;100610.22;5082417;28;20020;-84
2021/07/27 08:00:26;;;;;;;14.80;10.68;;;;;;;24.59;61.95;100617.78;5072185;28;20131;-84
2021/07/27 08:02:52;;;;;;;12.60;8.57;;;;;;;24.92;62.03;100617.31;5083590;28;20111;-85
2021/07/27 08:05:19;;;;;;;13.27;11.07;;;;;;;24.96;60.84;100620.44;5077144;28;20032;-84
2021/07/27 08:07:44;;;;;;;11.43;10.05;;;;;;;25.09;61.89;100614.75;5076340;28;20031;-85
2021/07/27 08:10:10;;;;;;;13.07;11.68;;;;;;;24.98;61.92;100610.91;5066851;28;20496;-84
2021/07/27 08:12:35;;;;;;;15.27;11.82;;;;;;;25.03;62.17;100590.91;5084952;28;20039;-84
2021/07/27 08:15:01;;;;;;;15.25;11.95;;;;;;;25.16;61.24;100600.91;5073525;28;20032;-84
2021/07/27 08:17:26;;;;;;;15.45;12.75;;;;;;;25.02;61.41;100594.75;5079256;28;20058;-84
2021/07/27 08:19:51;;;;;;;15.00;13.10;;;;;;;25.00;60.57;100594.97;5082340;28;20038;-85
2021/07/27 08:22:17;;;;;;;17.67;13.20;;;;;;;25.06;61.96;100600.63;5087465;28;20032;-84
2021/07/27 08:24:42;;;;;;;17.08;14.68;;;;;;;25.06;61.00;100595.94;5085592;28;20028;-84
2021/07/27 08:27:08;;;;;;;17.67;14.27;;;;;;;24.94;61.62;100595.91;5073320;28;20054;-84
2021/07/27 08:29:37;;;;;;;17.08;15.35;;;;;;;24.97;61.11;100600.94;5078251;28;20430;-84
2021/07/27 08:32:10;;;;;;;17.00;15.27;;;;;;;24.84;60.86;100597.56;5081287;28;20048;-85
2021/07/27 08:34:41;;;;;;;18.55;16.65;;;;;;;24.81;60.62;100596.09;5072144;28;20024;-85
2021/07/27 08:37:07;;;;;;;21.67;16.02;;;;;;;25.06;60.99;100601.44;5082141;28;20077;-85
2021/07/27 08:39:32;;;;;;;15.90;14.20;;;;;;;25.02;59.01;100597.50;5077964;28;20032;-84
2021/07/27 08:42:02;;;;;;;19.23;15.60;;;;;;;25.15;59.23;100605.56;5075812;28;20028;-84
2021/07/27 08:44:34;;;;;;;19.08;14.57;;;;;;;25.27;60.47;100597.34;5082829;28;20024;-85
2021/07/27 08:47:01;;;;;;;17.33;15.00;;;;;;;25.40;58.73;100604.56;5073909;28;20028;-84
2021/07/27 08:49:30;;;;;;;18.73;16.73;;;;;;;25.30;59.89;100596.88;5079537;28;20082;-84
2021/07/27 08:51:57;;;;;;;17.33;13.98;;;;;;;25.47;59.42;100602.53;5081131;28;20027;-84
2021/07/27 08:54:22;;;;;;;20.65;14.77;;;;;;;25.58;58.27;100601.69;5070953;28;20490;-84
2021/07/27 08:56:49;;;;;;;18.80;15.68;;;;;;;25.51;57.68;100603.72;5083843;28;20115;-84
2021/07/27 08:59:15;;;;;;;16.73;14.95;;;;;;;25.65;57.49;100605.19;5074966;28;20035;-85
2021/07/27 09:01:41;;;;;;;17.17;15.38;;;;;;;25.70;57.13;100600.88;5074297;28;20603;-85
2021/07/27 09:04:06;;;;;;;16.65;14.32;;;;;;;25.87;57.90;100599.13;5081062;28;20209;-84
2021/07/27 09:06:31;;;;;;;18.13;16.20;;;;;;;25.89;56.48;100599.69;5071861;28;20058;-84
2021/07/27 09:09:10;;;;;;;18.63;16.33;;;;;;;25.82;55.72;100599.00;5083127;28;20027;-84
2021/07/27 09:11:48;;;;;;;19.08;15.32;;;;;;;25.79;56.50;100600.28;5078065;28;20107;-84
2021/07/27 09:14:16;;;;;;;19.27;15.77;;;;;;;25.52;56.60;100588.88;5082915;28;20428;-84
2021/07/27 09:16:44;;;;;;;17.25;15.27;;;;;;;25.83;56.69;100601.50;5070228;28;20044;-84
2021/07/27 09:19:09;;;;;;;20.48;16.88;;;;;;;26.05;55.65;100600.88;5081058;28;20032;-84
2021/07/27 09:21:34;;;;;;;17.75;15.93;;;;;;;26.28;56.40;100598.09;5077056;28;20024;-84
2021/07/27 09:23:59;;;;;;;25.77;18.30;;;;;;;25.99;55.71;100608.22;5073423;28;20388;-84
2021/07/27 09:26:25;;;;;;;20.38;18.42;;;;;;;25.75;56.21;100596.31;5083875;28;20738;-84
2021/07/27 09:29:00;;;;;;;20.40;18.30;;;;;;;25.67;57.45;100604.94;5071165;28;20023;-85
2021/07/27 09:31:26;;;;;;;21.42;19.13;;;;;;;25.61;59.05;100605.88;5076246;28;20090;-85
2021/07/27 09:33:52;;;;;;;21.42;19.20;;;;;;;25.34;56.35;100595.31;5078442;28;20565;-84
2021/07/27 09:36:28;;;;;;;19.80;17.90;;;;;;;25.43;57.64;100601.31;5071847;28;20060;-85
2021/07/27 09:39:04;;;;;;;21.23;19.13;;;;;;;25.27;57.53;100596.50;5056826;28;20431;-84
2021/07/27 09:41:30;;;;;;;22.73;20.23;;;;;;;25.20;57.67;100605.72;5074506;28;20059;-85
2021/07/27 09:43:57;;;;;;;24.10;20.60;;;;;;;25.25;58.01;100604.16;5080065;28;20028;-85
2021/07/27 09:46:27;;;;;;;24.67;20.73;;;;;;;25.26;57.94;100611.38;5069804;28;20035;-85
2021/07/27 09:48:53;;;;;;;19.42;17.48;;;;;;;25.45;57.19;100605.53;5080873;28;20043;-85
2021/07/27 09:51:19;;;;;;;17.77;15.88;;;;;;;25.59;56.63;100608.91;5067426;28;20105;-85
2021/07/27 09:53:46;;;;;;;16.90;15.13;;;;;;;25.73;56.12;100603.97;5079024;28;20502;-85
2021/07/27 09:56:11;;;;;;;17.10;15.40;;;;;;;25.75;54.63;100604.59;5086221;28;20024;-85
2021/07/27 09:58:37;;;;;;;20.02;17.05;;;;;;;26.05;54.02;100598.13;5070353;28;20037;-85
2021/07/27 10:01:10;;;;;;;17.95;14.82;;;;;;;25.68;53.00;100606.59;5080429;28;20028;-85
2021/07/27 10:03:43;;;;;;;15.63;13.73;;;;;;;26.05;53.48;100607.25;5075546;28;20111;-84
2021/07/27 10:06:10;;;;;;;14.07;12.77;;;;;;;25.82;52.03;100605.34;5071638;28;20034;-85
2021/07/27 10:08:36;;;;;;;12.02;10.82;;;;;;;26.29;51.88;100615.47;5080705;28;20029;-85
2021/07/27 10:11:21;;;;;;;12.05;10.15;;;;;;;26.42;50.56;100750.34;5081096;28;20032;-85
2021/07/27 10:13:51;;;;;;;10.20;9.13;;;;;;;26.51;52.17;100767.41;5075504;28;20094;-85
2021/07/27 10:16:24;;;;;;;13.43;12.02;;;;;;;26.53;51.07;100752.25;5066088;28;20080;-85
2021/07/27 10:18:50;;;;;;;14.25;12.75;;;;;;;26.56;50.99;100754.53;5052289;28;20032;-85
2021/07/27 10:21:25;;;;;;;14.80;12.60;;;;;;;26.11;52.84;100757.00;5078896;28;20437;-85
2021/07/27 10:23:53;;;;;;;12.85;11.52;;;;;;;26.18;52.26;100741.22;5080452;28;20077;-84
2021/07/27 10:26:32;;;;;;;10.20;9.15;;;;;;;26.16;51.70;100742.53;5070235;28;20104;-85
2021/07/27 10:28:59;;;;;;;13.05;9.70;;;;;;;25.93;51.06;100754.34;5056845;28;20577;-85
2021/07/27 10:31:35;;;;;;;13.00;10.15;;;;;;;25.87;51.30;100751.50;5077384;28;20024;-85
2021/07/27 10:34:03;;;;;;;13.88;10.07;;;;;;;25.76;50.82;100744.00;5079971;28;20032;-84
2021/07/27 10:36:31;;;;;;;12.90;11.40;;;;;;;26.06;51.09;100746.72;5069547;28;20396;-85
2021/07/27 10:39:10;;;;;;;13.63;12.30;;;;;;;26.18;50.80;100745.91;5080639;28;20020;-85
2021/07/27 10:41:38;;;;;;;14.13;12.73;;;;;;;26.03;50.39;100738.94;5075417;28;20035;-85
2021/07/27 10:44:09;;;;;;;15.23;13.30;;;;;;;25.87;52.00;100748.75;5069983;28;20503;-85
2021/07/27 10:46:36;;;;;;;17.08;13.93;;;;;;;26.05;51.28;100747.81;5083752;28;20105;-85
2021/07/27 10:49:02;;;;;;;17.77;14.48;;;;;;;26.13;51.08;100743.84;5073121;28;20135;-85
2021/07/27 10:51:34;;;;;;;13.48;12.07;;;;;;;26.27;50.44;100739.78;5076870;28;20103;-85
2021/07/27 10:54:01;;;;;;;12.00;10.77;;;;;;;26.25;50.88;100746.63;5078544;28;20024;-85
2021/07/27 10:56:31;;;;;;;13.80;11.25;;;;;;;25.96;50.97;100726.31;5068803;28;20024;-85
2021/07/27 10:58:57;;;;;;;12.20;10.80;;;;;;;25.97;52.39;100731.63;5079407;28;20020;-85
2021/07/27 11:01:29;;;;;;;12.13;10.65;;;;;;;25.74;51.45;100729.63;5074355;28;20035;-85
2021/07/27 11:03:55;;;;;;;11.38;10.02;;;;;;;25.74;50.29;100644.22;5072643;28;20056;-85
2021/07/27 11:06:21;;;;;;;9.57;8.63;;;;;;;26.06;51.37;100707.31;5082323;28;20028;-85
2021/07/27 11:08:46;;;;;;;10.07;7.78;;;;;;;26.16;49.80;100737.03;5065695;28;20021;-85
2021/07/27 11:11:13;;;;;;;11.15;9.52;;;;;;;26.09;50.22;100726.13;5073680;28;20121;-85
2021/07/27 11:13:38;;;;;;;10.35;9.15;;;;;;;26.11;50.19;100722.03;5075026;28;20035;-85
2021/07/27 11:16:05;;;;;;;8.48;7.57;;;;;;;25.96;50.57;100727.19;5078216;28;20141;-85
2021/07/27 11:18:31;;;;;;;8.35;7.53;;;;;;;25.76;51.75;100735.72;5067141;28;20438;-85
2021/07/27 11:20:58;;;;;;;12.10;8.63;;;;;;;25.43;52.31;100741.75;5079168;28;20078;-85
2021/07/27 11:23:25;;;;;;;10.50;9.50;;;;;;;25.35;54.15;100745.69;5067616;28;20055;-85
2021/07/27 11:25:52;;;;;;;11.23;10.02;;;;;;;25.43;54.74;100747.25;5079851;28;20181;-84
2021/07/27 11:28:18;;;;;;;13.13;9.38;;;;;;;25.41;54.54;100741.16;5068201;28;20103;-84
2021/07/27 11:30:44;;;;;;;10.82;7.70;;;;;;;25.50;55.01;100736.13;5083048;28;20026;-84
2021/07/27 11:33:14;;;;;;;8.38;7.57;;;;;;;25.63;55.60;100734.03;5075957;28;20805;-84